Time;durP1;ratioP1;P1;durP2;ratioP2;P2;SDS_P1;SDS_P2;PMS_P1;PMS_P2;Temp;Humidity;BMP_temperature;BMP_pressure;BME280_temperature;BME280_humidity;BME280_pressure;Samples;Min_cycle;Max_cycle;Signal;HPM_P1;HPM_P2
2021/11/19 00:01:39;;;;;;;1.30;1.30;;;;;;;9.68;68.75;100390.61;101091;1317;138434;-75
2021/11/19 00:04:08;;;;;;;1.20;1.20;;;;;;;9.67;69.21;100377.86;101133;1318;119832;-77
2021/11/19 00:06:36;;;;;;;0.80;0.80;;;;;;;9.68;69.47;100368.62;101049;1318;139457;-75
2021/11/19 00:09:05;;;;;;;0.70;0.70;;;;;;;9.67;69.85;100360.32;101121;1321;95375;-76
2021/11/19 00:11:37;;;;;;;0.70;0.70;;;;;;;9.64;70.28;100357.89;101262;1318;95879;-75
2021/11/19 00:14:07;;;;;;;1.40;1.40;;;;;;;9.60;70.46;100355.70;101064;1319;139419;-75
2021/11/19 00:16:38;;;;;;;0.80;0.80;;;;;;;9.56;70.71;100347.10;101172;1321;110342;-77
2021/11/19 00:19:06;;;;;;;0.60;0.60;;;;;;;9.52;71.06;100352.49;101142;1318;139050;-76
2021/11/19 00:21:35;;;;;;;0.70;0.70;;;;;;;9.50;71.29;100351.65;101230;1318;96744;-75
2021/11/19 00:24:05;;;;;;;0.50;0.50;;;;;;;9.46;71.69;100342.89;101350;1318;108965;-75
2021/11/19 00:26:33;;;;;;;1.70;1.70;;;;;;;9.51;71.56;100334.45;101438;1318;139401;-75
2021/11/19 00:29:01;;;;;;;0.90;0.90;;;;;;;9.51;71.63;100337.27;101217;1318;95359;-76
2021/11/19 00:31:30;;;;;;;0.60;0.60;;;;;;;9.48;71.87;100342.14;101116;1319;138213;-75
2021/11/19 00:33:58;;;;;;;0.60;0.60;;;;;;;9.43;72.04;100342.42;101270;1317;106398;-75
2021/11/19 00:36:29;;;;;;;0.60;0.60;;;;;;;9.38;72.00;100331.20;101044;1321;138578;-76
2021/11/19 00:38:59;;;;;;;1.30;1.30;;;;;;;9.38;72.01;100334.55;101171;1319;95611;-76
2021/11/19 00:41:28;;;;;;;0.80;0.80;;;;;;;9.40;71.98;100337.53;101323;1318;96915;-75
2021/11/19 00:43:56;;;;;;;0.70;0.70;;;;;;;9.37;72.16;100329.44;101064;1319;137917;-76
2021/11/19 00:46:24;;;;;;;0.60;0.60;;;;;;;9.38;72.09;100324.46;101200;1318;108790;-76
2021/11/19 00:48:52;;;;;;;0.50;0.50;;;;;;;9.38;72.20;100320.05;101162;1318;138681;-76
2021/11/19 00:51:23;;;;;;;1.20;1.20;;;;;;;9.39;72.66;100323.20;101350;1316;95912;-75
2021/11/19 00:53:54;;;;;;;0.70;0.70;;;;;;;9.32;72.84;100316.79;101166;1318;107885;-76
2021/11/19 00:56:36;;;;;;;0.80;0.80;;;;;;;9.29;73.03;100306.59;100909;1320;139312;-75
2021/11/19 00:59:04;;;;;;;0.50;0.50;;;;;;;9.27;73.36;100305.04;101380;1317;95717;-75
2021/11/19 01:01:35;;;;;;;0.80;0.80;;;;;;;9.23;73.50;100303.00;100898;1320;138317;-75
2021/11/19 01:04:05;;;;;;;1.30;1.30;;;;;;;9.28;73.54;100307.16;101150;1318;107957;-78
2021/11/19 01:06:34;;;;;;;0.80;0.80;;;;;;;9.30;73.73;100303.39;101247;1318;139213;-75
2021/11/19 01:09:16;;;;;;;0.60;0.60;;;;;;;9.21;73.71;100297.89;101438;1318;96528;-76
2021/11/19 01:11:44;;;;;;;0.80;0.80;;;;;;;9.19;74.20;100298.48;101171;1318;95275;-77
2021/11/19 01:14:20;;;;;;;0.80;0.80;;;;;;;9.18;74.31;100291.77;101026;1318;138331;-76
2021/11/19 01:16:53;;;;;;;1.00;1.00;;;;;;;9.17;74.50;100284.54;101153;1319;107436;-75
2021/11/19 01:19:28;;;;;;;0.90;0.90;;;;;;;9.18;74.68;100283.09;101073;1318;138641;-75
2021/11/19 01:22:08;;;;;;;0.50;0.40;;;;;;;9.14;75.01;100284.44;101305;1318;95279;-76
2021/11/19 01:24:36;;;;;;;1.80;1.70;;;;;;;9.16;74.88;100288.65;101109;1318;140280;-76
2021/11/19 01:27:05;;;;;;;1.00;1.00;;;;;;;9.14;75.11;100279.83;101139;1318;109447;-76
2021/11/19 01:29:33;;;;;;;0.80;0.80;;;;;;;9.11;75.08;100278.48;101054;1321;95773;-75
2021/11/19 01:32:07;;;;;;;0.80;0.80;;;;;;;9.15;75.14;100290.79;101139;1318;140294;-76
2021/11/19 01:35:08;;;;;;;0.70;0.70;;;;;;;9.11;75.00;100285.38;100668;1319;109513;-75
2021/11/19 01:37:49;;;;;;;1.60;1.60;;;;;;;9.19;74.84;100280.42;100954;1318;139144;-76
2021/11/19 01:40:41;;;;;;;1.30;1.30;;;;;;;9.27;74.66;100275.96;101096;1322;95375;-75
2021/11/19 01:43:24;;;;;;;0.70;0.70;;;;;;;9.26;74.55;100280.08;101005;1321;139087;-75
2021/11/19 01:45:56;;;;;;;0.70;0.70;;;;;;;9.23;74.50;100280.69;101204;1318;108982;-75
2021/11/19 01:48:27;;;;;;;0.70;0.70;;;;;;;9.25;74.34;100278.35;101171;1321;139097;-75
2021/11/19 01:51:00;;;;;;;1.20;1.20;;;;;;;9.24;74.48;100272.52;101268;1318;95599;-74
2021/11/19 01:53:45;;;;;;;1.30;1.30;;;;;;;9.22;74.63;100268.84;101160;1318;95580;-75
2021/11/19 01:56:17;;;;;;;0.80;0.80;;;;;;;9.13;74.87;100257.16;101207;1318;138902;-75
2021/11/19 01:58:49;;;;;;;0.90;0.90;;;;;;;9.10;75.02;100244.32;101021;1321;108827;-76
2021/11/19 02:01:22;;;;;;;0.70;0.70;;;;;;;9.09;75.01;100245.23;101061;1318;138974;-75
2021/11/19 02:03:55;;;;;;;0.70;0.70;;;;;;;9.15;75.15;100244.92;101221;1318;96228;-76
2021/11/19 02:06:47;;;;;;;1.00;1.00;;;;;;;9.15;75.04;100249.35;101065;1321;138958;-74
2021/11/19 02:09:29;;;;;;;0.80;0.80;;;;;;;9.20;75.01;100258.23;101055;1318;109890;-76
2021/11/19 02:12:13;;;;;;;0.70;0.70;;;;;;;9.24;74.86;100251.98;101101;1318;98231;-75
2021/11/19 02:14:52;;;;;;;0.60;0.60;;;;;;;9.22;74.97;100251.48;101052;1318;138970;-73
2021/11/19 02:17:20;;;;;;;1.00;1.00;;;;;;;9.20;75.06;100251.34;101144;1318;106784;-76
2021/11/19 02:19:58;;;;;;;0.80;0.80;;;;;;;9.22;75.06;100257.14;100998;1320;138663;-75
2021/11/19 02:22:36;;;;;;;0.80;0.80;;;;;;;9.25;75.00;100257.45;101202;1318;97125;-76
2021/11/19 02:25:09;;;;;;;1.50;1.50;;;;;;;9.25;74.89;100255.14;100900;1321;139373;-75
2021/11/19 02:27:55;;;;;;;1.00;1.00;;;;;;;9.28;74.92;100253.30;101144;1319;107544;-76
2021/11/19 02:30:33;;;;;;;0.60;0.60;;;;;;;9.33;74.94;100250.69;100978;1321;139832;-75
2021/11/19 02:33:08;;;;;;;0.90;0.90;;;;;;;9.32;74.93;100250.01;101283;1318;95599;-74
2021/11/19 02:35:44;;;;;;;0.80;0.80;;;;;;;9.33;74.95;100250.15;101202;1320;95290;-76
2021/11/19 02:38:17;;;;;;;1.30;1.30;;;;;;;9.39;74.96;100243.63;101059;1318;139279;-75
2021/11/19 02:40:46;;;;;;;1.40;1.40;;;;;;;9.42;74.84;100236.11;101402;1317;107912;-75
2021/11/19 02:43:23;;;;;;;0.90;0.90;;;;;;;9.36;74.87;100248.65;101159;1317;138745;-75
2021/11/19 02:45:53;;;;;;;0.70;0.70;;;;;;;9.37;75.00;100252.37;101102;1321;95256;-75
2021/11/19 02:48:26;;;;;;;0.50;0.50;;;;;;;9.35;75.22;100251.52;101048;1321;139977;-76
2021/11/19 02:50:56;;;;;;;0.90;0.90;;;;;;;9.37;75.15;100252.01;101137;1318;109898;-76
2021/11/19 02:53:25;;;;;;;1.50;1.50;;;;;;;9.35;75.31;100251.18;101182;1321;96280;-75
2021/11/19 02:55:55;;;;;;;0.90;0.90;;;;;;;9.34;75.32;100246.94;101203;1318;139174;-76
2021/11/19 02:58:30;;;;;;;1.00;1.00;;;;;;;9.33;75.62;100250.34;101213;1319;109063;-75
2021/11/19 03:01:11;;;;;;;0.90;0.90;;;;;;;9.32;75.68;100244.70;101034;1321;140303;-76
2021/11/19 03:03:41;;;;;;;0.80;0.80;;;;;;;9.34;75.75;100233.48;101231;1318;95812;-75
2021/11/19 03:06:09;;;;;;;0.80;0.80;;;;;;;9.41;75.54;100224.09;101244;1321;96238;-74
2021/11/19 03:08:37;;;;;;;1.20;1.20;;;;;;;9.43;75.53;100224.39;100987;1319;138378;-76
2021/11/19 03:11:06;;;;;;;1.80;1.80;;;;;;;9.45;75.40;100224.55;101118;1318;109993;-76
2021/11/19 03:13:36;;;;;;;1.10;1.10;;;;;;;9.43;75.31;100227.76;101112;1318;137769;-76
2021/11/19 03:16:05;;;;;;;0.90;0.90;;;;;;;9.43;75.59;100233.79;101215;1321;95719;-75
2021/11/19 03:18:35;;;;;;;1.10;1.10;;;;;;;9.45;75.57;100232.52;101126;1318;139972;-75
2021/11/19 03:21:08;;;;;;;1.00;1.00;;;;;;;9.47;75.58;100234.58;101253;1318;108873;-77
2021/11/19 03:23:37;;;;;;;0.90;0.90;;;;;;;9.50;75.59;100234.68;101260;1318;95463;-76
2021/11/19 03:26:07;;;;;;;0.70;0.70;;;;;;;9.48;75.70;100235.45;101008;1321;138339;-76
2021/11/19 03:28:35;;;;;;;0.80;0.80;;;;;;;9.42;75.66;100237.90;100951;1321;108190;-75
2021/11/19 03:31:07;;;;;;;0.90;0.90;;;;;;;9.39;75.95;100238.86;101002;1319;139385;-76
2021/11/19 03:33:39;;;;;;;0.90;0.90;;;;;;;9.43;76.05;100244.27;101146;1319;95796;-75
2021/11/19 03:36:09;;;;;;;1.40;1.40;;;;;;;9.49;75.75;100241.27;101380;1318;95200;-76
2021/11/19 03:38:39;;;;;;;1.30;1.30;;;;;;;9.52;75.77;100242.79;101156;1318;139851;-76
2021/11/19 03:41:08;;;;;;;1.00;1.00;;;;;;;9.55;75.77;100238.29;101200;1318;110341;-76
2021/11/19 03:43:43;;;;;;;0.90;0.90;;;;;;;9.57;75.70;100234.16;100982;1319;140693;-76
2021/11/19 03:46:15;;;;;;;0.80;0.80;;;;;;;9.57;75.65;100236.83;101115;1320;95324;-76
2021/11/19 03:48:44;;;;;;;0.70;0.70;;;;;;;9.61;75.57;100238.33;101160;1318;138634;-76
2021/11/19 03:51:18;;;;;;;0.70;0.70;;;;;;;9.62;75.47;100235.65;101132;1318;108806;-75
2021/11/19 03:53:46;;;;;;;2.00;2.00;;;;;;;9.58;75.58;100233.96;101307;1321;95656;-76
2021/11/19 03:56:15;;;;;;;1.00;1.00;;;;;;;9.59;75.73;100237.48;101075;1318;138017;-77
2021/11/19 03:58:44;;;;;;;1.00;1.00;;;;;;;9.56;75.81;100239.14;101251;1318;108912;-76
2021/11/19 04:01:38;;;;;;;1.20;1.20;;;;;;;9.54;75.91;100244.52;101073;1321;138740;-75
2021/11/19 04:04:08;;;;;;;0.90;0.90;;;;;;;9.55;76.14;100245.20;101889;1317;97512;-76
2021/11/19 04:06:36;;;;;;;1.30;1.30;;;;;;;9.55;76.11;100246.44;104023;1321;138445;-77
2021/11/19 04:09:05;;;;;;;0.60;0.60;;;;;;;9.59;76.13;100256.45;102706;1321;107916;-75
2021/11/19 04:11:33;;;;;;;1.00;1.00;;;;;;;9.66;75.92;100256.81;101189;1318;109823;-74
2021/11/19 04:14:01;;;;;;;0.80;0.80;;;;;;;9.71;75.68;100255.80;101184;1318;138577;-74
2021/11/19 04:16:33;;;;;;;2.00;1.90;;;;;;;9.74;75.57;100260.51;101123;1319;95782;-75
2021/11/19 04:19:03;;;;;;;1.30;1.30;;;;;;;9.76;75.59;100255.49;101086;1321;138864;-76
2021/11/19 04:21:31;;;;;;;1.00;1.00;;;;;;;9.77;75.70;100260.77;101456;1318;108680;-76
2021/11/19 04:24:00;;;;;;;1.10;1.10;;;;;;;9.76;75.52;100258.70;101235;1318;95229;-76
2021/11/19 04:26:32;;;;;;;0.90;0.90;;;;;;;9.74;75.69;100255.73;101073;1321;138995;-75
2021/11/19 04:29:02;;;;;;;1.00;1.00;;;;;;;9.74;75.89;100251.48;101229;1318;108976;-76
2021/11/19 04:31:42;;;;;;;0.80;0.80;;;;;;;9.82;75.81;100254.81;101137;1318;140068;-75
2021/11/19 04:34:11;;;;;;;0.80;0.80;;;;;;;9.85;75.64;100253.30;101246;1318;95352;-76
2021/11/19 04:36:40;;;;;;;0.50;0.50;;;;;;;9.83;75.64;100248.75;101058;1318;138686;-76
2021/11/19 04:39:10;;;;;;;0.80;0.80;;;;;;;9.82;75.76;100252.52;101237;1318;109040;-76
2021/11/19 04:41:40;;;;;;;1.00;1.00;;;;;;;9.88;75.74;100255.20;101415;1318;109850;-76
2021/11/19 04:44:08;;;;;;;0.90;0.90;;;;;;;9.91;75.65;100255.11;101217;1318;139711;-77
2021/11/19 04:46:42;;;;;;;0.90;0.90;;;;;;;9.98;75.50;100249.27;101238;1318;95266;-76
2021/11/19 04:49:10;;;;;;;0.80;0.80;;;;;;;9.99;75.50;100244.98;101127;1318;138723;-75
2021/11/19 04:51:39;;;;;;;0.70;0.70;;;;;;;9.94;75.42;100240.13;101073;1321;109769;-74
2021/11/19 04:54:10;;;;;;;0.80;0.80;;;;;;;9.91;75.77;100248.20;101114;1319;95689;-74
2021/11/19 04:56:41;;;;;;;0.90;0.90;;;;;;;9.93;75.71;100246.19;101157;1318;138519;-74
2021/11/19 04:59:09;;;;;;;0.90;0.90;;;;;;;9.92;75.98;100245.36;101302;1318;109633;-76
2021/11/19 05:01:39;;;;;;;1.00;1.00;;;;;;;9.88;75.93;100240.28;100752;1323;138698;-75
2021/11/19 05:04:34;;;;;;;0.70;0.70;;;;;;;9.88;75.99;100244.53;100943;1318;96463;-76
2021/11/19 05:07:03;;;;;;;1.00;1.00;;;;;;;9.93;76.18;100244.26;101119;1318;140227;-77
2021/11/19 05:09:32;;;;;;;0.70;0.70;;;;;;;9.95;76.10;100252.34;101218;1318;108534;-76
2021/11/19 05:12:13;;;;;;;1.30;1.30;;;;;;;9.99;76.07;100256.33;101188;1318;110502;-77
2021/11/19 05:14:42;;;;;;;1.00;1.00;;;;;;;10.02;75.92;100251.98;100872;1321;139169;-75
2021/11/19 05:17:11;;;;;;;1.00;1.00;;;;;;;10.07;76.06;100250.98;101097;1321;95298;-75
2021/11/19 05:19:39;;;;;;;0.80;0.80;;;;;;;10.10;75.98;100248.77;101151;1318;138625;-76
2021/11/19 05:22:07;;;;;;;1.20;1.20;;;;;;;10.11;75.85;100253.00;101075;1319;106590;-76
2021/11/19 05:24:36;;;;;;;1.00;1.00;;;;;;;10.10;76.00;100251.39;101110;1318;139044;-76
2021/11/19 05:27:05;;;;;;;0.70;0.70;;;;;;;10.14;75.98;100251.15;101373;1318;95790;-76
2021/11/19 05:29:35;;;;;;;0.70;0.70;;;;;;;10.19;75.87;100251.71;101121;1321;107986;-76
2021/11/19 05:32:04;;;;;;;1.20;1.20;;;;;;;10.22;75.68;100245.95;101030;1318;138911;-76
2021/11/19 05:34:32;;;;;;;0.50;0.50;;;;;;;10.22;75.80;100247.73;101183;1318;96421;-78
2021/11/19 05:37:01;;;;;;;1.00;1.00;;;;;;;10.24;75.72;100252.66;100985;1318;138942;-76
2021/11/19 05:39:30;;;;;;;0.80;0.80;;;;;;;10.20;75.88;100257.54;101282;1318;109078;-76
2021/11/19 05:41:58;;;;;;;1.70;1.70;;;;;;;10.23;75.99;100258.19;101273;1318;109913;-76
2021/11/19 05:44:27;;;;;;;0.90;0.90;;;;;;;10.26;75.98;100260.23;101141;1318;140110;-75
2021/11/19 05:47:16;;;;;;;1.00;1.00;;;;;;;10.25;75.98;100260.27;101073;1317;95363;-76
2021/11/19 05:49:49;;;;;;;1.10;1.10;;;;;;;10.24;76.05;100254.96;101069;1318;139933;-75
2021/11/19 05:52:18;;;;;;;1.10;1.10;;;;;;;10.20;76.12;100257.73;101295;1321;110325;-76
2021/11/19 05:54:46;;;;;;;0.70;0.70;;;;;;;10.21;76.33;100256.09;101063;1320;140695;-76
2021/11/19 05:57:14;;;;;;;0.90;0.90;;;;;;;10.26;76.20;100256.48;101149;1322;95980;-76
2021/11/19 05:59:41;;;;;;;1.20;1.20;;;;;;;10.31;76.22;100253.69;101264;1318;109170;-76
2021/11/19 06:02:12;;;;;;;1.00;1.00;;;;;;;10.37;76.06;100246.11;101151;1318;139243;-77
2021/11/19 06:05:00;;;;;;;0.80;0.80;;;;;;;10.45;75.94;100235.78;101190;1318;95679;-77
2021/11/19 06:07:33;;;;;;;2.10;2.00;;;;;;;10.53;75.64;100227.21;101218;1318;139950;-76
2021/11/19 06:10:02;;;;;;;1.10;1.10;;;;;;;10.59;75.41;100237.14;101286;1317;108871;-75
2021/11/19 06:12:36;;;;;;;0.70;0.70;;;;;;;10.57;75.36;100239.70;101203;1318;139806;-77
2021/11/19 06:15:10;;;;;;;0.80;0.80;;;;;;;10.53;75.58;100246.73;101213;1321;95296;-77
2021/11/19 06:17:41;;;;;;;0.70;0.70;;;;;;;10.53;75.59;100249.20;101465;1318;96056;-76
2021/11/19 06:20:20;;;;;;;0.70;0.70;;;;;;;10.52;75.76;100248.90;101202;1319;139210;-76
2021/11/19 06:23:04;;;;;;;0.80;0.80;;;;;;;10.48;75.96;100245.26;101380;1318;108059;-76
2021/11/19 06:25:37;;;;;;;0.70;0.70;;;;;;;10.52;75.93;100250.49;100999;1320;139228;-76
2021/11/19 06:28:08;;;;;;;0.50;0.50;;;;;;;10.58;75.92;100257.77;100964;1321;96112;-75
2021/11/19 06:30:37;;;;;;;0.80;0.80;;;;;;;10.60;75.78;100258.23;101135;1322;140512;-77
2021/11/19 06:33:05;;;;;;;0.80;0.80;;;;;;;10.61;75.81;100262.30;101251;1314;109663;-77
2021/11/19 06:35:33;;;;;;;0.70;0.70;;;;;;;10.63;75.79;100259.92;101085;1320;95357;-77
2021/11/19 06:38:01;;;;;;;0.70;0.70;;;;;;;10.70;75.63;100268.59;101127;1321;140233;-76
2021/11/19 06:40:52;;;;;;;0.60;0.60;;;;;;;10.73;75.82;100277.95;101199;1318;108613;-76
2021/11/19 06:43:59;;;;;;;1.10;1.10;;;;;;;10.74;75.75;100281.46;100111;1327;138945;-76
2021/11/19 06:46:47;;;;;;;0.70;0.70;;;;;;;10.75;75.64;100285.88;100238;1327;96856;-76
2021/11/19 06:49:34;;;;;;;0.60;0.60;;;;;;;10.76;75.71;100283.89;100904;1318;139015;-78
2021/11/19 06:52:18;;;;;;;0.70;0.70;;;;;;;10.78;75.63;100287.40;101239;1318;107974;-76
2021/11/19 06:55:21;;;;;;;0.90;0.90;;;;;;;10.81;75.78;100288.02;101072;1318;140527;-75
2021/11/19 06:58:07;;;;;;;0.90;0.90;;;;;;;10.85;75.67;100281.69;101172;1320;95327;-75
2021/11/19 07:00:41;;;;;;;0.60;0.60;;;;;;;10.83;75.66;100276.75;101071;1318;139713;-76
2021/11/19 07:03:10;;;;;;;1.40;1.40;;;;;;;10.83;75.53;100272.48;101138;1322;109214;-77
2021/11/19 07:05:39;;;;;;;1.20;1.20;;;;;;;10.82;75.65;100274.64;101240;1318;109717;-75
2021/11/19 07:08:09;;;;;;;0.60;0.60;;;;;;;10.82;75.81;100276.63;101095;1322;139891;-76
2021/11/19 07:10:38;;;;;;;0.60;0.60;;;;;;;10.83;75.82;100271.80;101183;1318;95358;-77
2021/11/19 07:13:06;;;;;;;0.80;0.80;;;;;;;10.81;75.86;100273.44;100960;1321;139401;-76
2021/11/19 07:15:35;;;;;;;0.60;0.60;;;;;;;10.82;76.03;100277.16;101565;1318;109192;-77
2021/11/19 07:18:03;;;;;;;0.50;0.50;;;;;;;10.83;76.07;100278.36;101288;1318;96761;-76
2021/11/19 07:20:32;;;;;;;1.20;1.20;;;;;;;10.84;76.07;100284.55;101068;1321;139018;-76
2021/11/19 07:23:00;;;;;;;0.60;0.60;;;;;;;10.80;76.38;100291.92;100981;1318;108095;-76
2021/11/19 07:25:30;;;;;;;0.60;0.60;;;;;;;10.79;76.50;100298.71;100949;1318;139069;-76
2021/11/19 07:28:01;;;;;;;0.90;0.90;;;;;;;10.87;76.36;100305.60;101173;1321;95711;-76
2021/11/19 07:30:45;;;;;;;0.50;0.50;;;;;;;10.90;76.33;100301.42;101086;1321;140576;-75
2021/11/19 07:33:26;;;;;;;0.80;0.80;;;;;;;10.95;76.26;100304.50;101156;1319;108815;-76
2021/11/19 07:36:00;;;;;;;1.20;1.20;;;;;;;11.00;76.21;100305.92;101003;1321;108277;-76
2021/11/19 07:38:47;;;;;;;1.40;1.40;;;;;;;11.07;75.77;100304.84;100909;1321;139750;-76
2021/11/19 07:41:36;;;;;;;0.90;0.90;;;;;;;11.05;76.10;100314.50;102390;1322;97224;-76
2021/11/19 07:44:26;;;;;;;0.70;0.70;;;;;;;11.06;76.06;100315.16;100978;1321;138490;-76
2021/11/19 07:47:07;;;;;;;0.60;0.60;;;;;;;11.13;75.83;100314.96;100995;1319;109152;-75
2021/11/19 07:49:37;;;;;;;0.80;0.80;;;;;;;11.10;75.86;100316.31;101127;1319;139987;-77
2021/11/19 07:52:10;;;;;;;0.60;0.60;;;;;;;11.08;76.03;100314.98;101326;1316;95821;-77
2021/11/19 07:54:38;;;;;;;0.50;0.50;;;;;;;11.08;76.22;100315.48;101113;1318;139598;-76
2021/11/19 07:57:06;;;;;;;0.80;0.80;;;;;;;11.09;76.27;100308.86;101083;1320;109792;-76
2021/11/19 07:59:35;;;;;;;0.70;0.70;;;;;;;11.18;76.14;100313.02;101215;1318;95768;-76
2021/11/19 08:02:03;;;;;;;0.60;0.60;;;;;;;11.23;75.96;100309.14;101157;1321;139668;-75
2021/11/19 08:04:34;;;;;;;1.10;1.10;;;;;;;11.24;75.92;100312.86;101240;1315;195652;-76
2021/11/19 08:07:07;;;;;;;0.70;0.70;;;;;;;11.24;75.94;100313.05;100824;1318;138208;-76
2021/11/19 08:09:44;;;;;;;0.80;0.80;;;;;;;11.19;76.19;100309.80;101171;1319;95379;-76
2021/11/19 08:12:22;;;;;;;0.70;0.70;;;;;;;11.19;76.35;100320.10;101200;1319;95191;-75
2021/11/19 08:15:03;;;;;;;0.60;0.60;;;;;;;11.21;76.19;100313.67;100966;1321;139749;-76
2021/11/19 08:17:36;;;;;;;0.90;0.90;;;;;;;11.23;76.39;100314.86;101223;1318;109004;-76
2021/11/19 08:20:17;;;;;;;0.60;0.60;;;;;;;11.28;76.21;100312.73;100999;1318;139843;-76
2021/11/19 08:22:46;;;;;;;0.60;0.60;;;;;;;11.31;76.13;100311.39;101238;1318;95287;-75
2021/11/19 08:25:15;;;;;;;0.50;0.50;;;;;;;11.33;76.29;100308.85;101141;1318;139852;-75
2021/11/19 08:27:48;;;;;;;0.50;0.50;;;;;;;11.34;76.27;100302.77;100959;1321;109935;-75
2021/11/19 08:30:20;;;;;;;0.60;0.60;;;;;;;11.37;76.21;100315.30;101308;1319;95683;-77
2021/11/19 08:32:48;;;;;;;0.70;0.70;;;;;;;11.41;76.04;100315.18;101145;1318;138702;-76
2021/11/19 08:35:16;;;;;;;0.60;0.60;;;;;;;11.48;75.94;100320.63;101299;1318;108890;-77
2021/11/19 08:37:45;;;;;;;0.80;0.80;;;;;;;11.53;75.98;100324.22;101142;1318;138891;-76
2021/11/19 08:40:14;;;;;;;0.70;0.70;;;;;;;11.57;76.05;100313.60;101200;1319;95884;-77
2021/11/19 08:42:44;;;;;;;1.30;1.30;;;;;;;11.66;75.69;100318.11;101132;1318;95773;-76
2021/11/19 08:45:15;;;;;;;0.70;0.70;;;;;;;11.67;75.49;100314.55;101082;1319;138603;-77
2021/11/19 08:47:50;;;;;;;0.80;0.80;;;;;;;11.61;75.57;100314.03;101232;1318;109766;-76
2021/11/19 08:50:24;;;;;;;0.70;0.70;;;;;;;11.59;75.86;100306.80;101121;1318;140601;-75
2021/11/19 08:52:51;;;;;;;0.60;0.60;;;;;;;11.58;76.03;100303.27;101226;1318;95264;-76
2021/11/19 08:55:19;;;;;;;0.60;0.60;;;;;;;11.68;75.98;100292.64;101100;1319;141257;-75
2021/11/19 08:57:47;;;;;;;0.50;0.50;;;;;;;11.69;75.59;100294.20;101221;1318;110644;-76
2021/11/19 09:00:25;;;;;;;0.80;0.80;;;;;;;11.70;75.76;100294.52;101254;1318;96095;-75
2021/11/19 09:02:58;;;;;;;0.60;0.60;;;;;;;11.74;75.58;100307.55;101123;1318;138406;-75
2021/11/19 09:05:28;;;;;;;0.60;0.60;;;;;;;11.76;75.38;100313.01;101195;1318;107878;-76
2021/11/19 09:07:56;;;;;;;0.60;0.60;;;;;;;11.74;75.67;100314.14;101127;1318;138566;-74
2021/11/19 09:10:24;;;;;;;0.90;0.90;;;;;;;11.77;75.52;100308.72;101195;1318;96073;-77
2021/11/19 09:12:52;;;;;;;1.10;1.10;;;;;;;11.78;75.48;100313.12;101017;1319;138977;-77
2021/11/19 09:15:22;;;;;;;0.90;0.90;;;;;;;11.77;75.60;100312.44;101216;1315;107908;-76
2021/11/19 09:18:18;;;;;;;0.50;0.50;;;;;;;11.71;75.72;100307.10;101162;1319;109870;-77
2021/11/19 09:21:00;;;;;;;0.80;0.80;;;;;;;11.66;75.95;100304.96;101126;1318;138774;-77
2021/11/19 09:23:32;;;;;;;0.70;0.70;;;;;;;11.66;76.13;100303.02;101259;1318;95411;-77
2021/11/19 09:26:05;;;;;;;0.70;0.70;;;;;;;11.62;76.26;100302.96;100754;1318;138536;-75
2021/11/19 09:28:36;;;;;;;0.70;0.70;;;;;;;11.59;76.38;100304.13;101092;1321;109746;-74
2021/11/19 09:31:06;;;;;;;0.50;0.50;;;;;;;11.61;76.55;100306.92;100786;1321;138908;-75
2021/11/19 09:33:35;;;;;;;0.70;0.70;;;;;;;11.64;76.47;100305.55;101310;1318;96154;-77
2021/11/19 09:36:04;;;;;;;0.80;0.80;;;;;;;11.66;76.66;100302.46;101206;1319;107803;-76
2021/11/19 09:38:32;;;;;;;0.60;0.60;;;;;;;11.70;76.56;100302.70;101326;1318;140783;-76
2021/11/19 09:41:22;;;;;;;0.80;0.80;;;;;;;11.71;76.41;100295.73;101176;1318;95542;-76
2021/11/19 09:44:16;;;;;;;0.50;0.50;;;;;;;11.77;76.39;100291.99;101130;1323;140055;-76
2021/11/19 09:47:00;;;;;;;0.70;0.70;;;;;;;11.83;76.15;100288.05;100838;1325;108737;-76
2021/11/19 09:49:59;;;;;;;0.80;0.80;;;;;;;11.84;76.12;100284.83;101125;1318;139280;-77
2021/11/19 09:52:48;;;;;;;0.70;0.70;;;;;;;11.83;76.36;100284.84;101238;1318;95284;-76
2021/11/19 09:55:16;;;;;;;0.50;0.50;;;;;;;11.94;76.31;100286.46;101147;1319;140145;-77
2021/11/19 09:58:05;;;;;;;0.90;0.90;;;;;;;11.96;75.92;100292.09;101172;1321;107984;-75
2021/11/19 10:00:48;;;;;;;0.70;0.70;;;;;;;11.92;76.13;100274.77;101170;1319;108922;-76
2021/11/19 10:03:22;;;;;;;0.70;0.70;;;;;;;11.90;76.13;100274.64;101097;1322;138529;-76
2021/11/19 10:06:21;;;;;;;0.80;0.80;;;;;;;11.89;76.27;100270.05;101410;1318;95357;-76
2021/11/19 10:09:08;;;;;;;0.70;0.70;;;;;;;11.95;76.43;100268.29;101102;1319;139897;-75
2021/11/19 10:11:41;;;;;;;0.70;0.70;;;;;;;12.01;76.19;100262.91;101086;1322;109983;-76
2021/11/19 10:14:31;;;;;;;0.70;0.70;;;;;;;12.01;76.13;100260.26;101336;1321;140394;-76
2021/11/19 10:17:14;;;;;;;0.60;0.60;;;;;;;11.98;76.23;100255.20;101218;1319;95699;-76
2021/11/19 10:19:50;;;;;;;0.70;0.70;;;;;;;11.90;76.35;100250.09;101091;1319;138586;-77
2021/11/19 10:22:41;;;;;;;0.60;0.60;;;;;;;11.97;76.48;100248.13;101125;1321;110025;-76
2021/11/19 10:25:11;;;;;;;0.50;0.50;;;;;;;12.00;76.44;100248.35;101093;1319;139900;-76
2021/11/19 10:27:54;;;;;;;0.60;0.60;;;;;;;12.04;76.47;100253.94;101150;1319;97023;-76
2021/11/19 10:30:32;;;;;;;0.60;0.60;;;;;;;12.09;76.26;100259.29;101249;1318;108932;-76
2021/11/19 10:33:37;;;;;;;0.50;0.50;;;;;;;12.04;76.35;100259.98;101151;1318;138639;-76
2021/11/19 10:36:26;;;;;;;0.80;0.80;;;;;;;12.05;76.46;100257.09;101292;1318;95287;-76
2021/11/19 10:39:13;;;;;;;0.50;0.50;;;;;;;12.06;76.57;100252.63;101157;1318;138567;-75
2021/11/19 10:42:10;;;;;;;0.70;0.70;;;;;;;12.07;76.56;100245.13;101258;1318;108220;-75
2021/11/19 10:45:00;;;;;;;0.40;0.40;;;;;;;12.06;76.78;100239.25;101203;1318;138582;-76
2021/11/19 10:47:52;;;;;;;0.70;0.70;;;;;;;12.09;76.61;100236.84;101306;1318;95289;-76
2021/11/19 10:50:50;;;;;;;0.80;0.80;;;;;;;12.09;76.88;100235.41;101104;1318;138437;-76
2021/11/19 10:53:36;;;;;;;0.60;0.60;;;;;;;12.08;76.89;100232.45;100977;1320;108856;-76
2021/11/19 10:56:32;;;;;;;0.80;0.80;;;;;;;12.06;77.08;100230.73;101196;1318;140624;-75
2021/11/19 10:58:59;;;;;;;0.60;0.60;;;;;;;12.08;77.10;100223.38;101311;1318;95753;-76
2021/11/19 11:02:02;;;;;;;0.60;0.60;;;;;;;12.12;77.08;100218.58;101152;1318;139063;-75
2021/11/19 11:04:39;;;;;;;0.80;0.80;;;;;;;12.15;77.05;100215.09;101253;1320;108886;-76
2021/11/19 11:07:17;;;;;;;0.60;0.60;;;;;;;12.14;77.04;100213.52;101058;1319;139277;-74
2021/11/19 11:10:16;;;;;;;0.60;0.60;;;;;;;12.16;77.00;100211.32;101322;1319;96741;-76
2021/11/19 11:12:46;;;;;;;0.50;0.50;;;;;;;12.12;77.14;100215.74;101099;1321;95373;-77
2021/11/19 11:15:15;;;;;;;0.70;0.70;;;;;;;12.15;77.21;100219.55;101080;1318;138675;-74
2021/11/19 11:17:57;;;;;;;0.60;0.60;;;;;;;12.20;77.15;100215.45;101091;1322;109988;-76
2021/11/19 11:20:38;;;;;;;0.70;0.70;;;;;;;12.29;76.91;100217.64;101169;1318;138669;-76
2021/11/19 11:23:15;;;;;;;0.70;0.70;;;;;;;12.32;76.76;100213.23;101248;1319;95709;-76
2021/11/19 11:25:43;;;;;;;0.70;0.70;;;;;;;12.31;76.85;100212.05;101064;1321;138725;-76
2021/11/19 11:28:20;;;;;;;0.50;0.50;;;;;;;12.34;76.92;100212.46;101091;1320;108842;-76
2021/11/19 11:30:56;;;;;;;0.50;0.50;;;;;;;12.36;76.87;100212.90;100831;1323;96318;-77
2021/11/19 11:33:31;;;;;;;0.70;0.70;;;;;;;12.39;76.93;100210.52;101113;1320;139873;-75
2021/11/19 11:36:19;;;;;;;1.00;1.00;;;;;;;12.44;76.89;100214.06;100966;1321;109650;-77
2021/11/19 11:38:53;;;;;;;0.70;0.70;;;;;;;12.48;76.82;100216.94;101185;1322;140682;-76
2021/11/19 11:41:30;;;;;;;0.60;0.60;;;;;;;12.50;76.63;100217.94;101232;1318;95907;-76
2021/11/19 11:44:17;;;;;;;0.60;0.60;;;;;;;12.52;76.66;100215.02;101184;1318;138540;-76
2021/11/19 11:46:50;;;;;;;0.50;0.50;;;;;;;12.54;76.54;100216.89;101227;1318;108893;-75
2021/11/19 11:49:17;;;;;;;0.90;0.90;;;;;;;12.58;76.69;100216.39;101213;1319;138885;-74